sensor_id;sensor_type;location;lat;lon;timestamp;P1;durP1;ratioP1;P2;durP2;ratioP2
41059;SDS011;26811;53.160;8.202;2023-06-05T00:01:42;16.58;;;5.55;;
41059;SDS011;26811;53.160;8.202;2023-06-05T00:06:43;12.27;;;5.60;;
41059;SDS011;26811;53.160;8.202;2023-06-05T00:11:45;13.70;;;5.85;;
41059;SDS011;26811;53.160;8.202;2023-06-05T00:16:46;13.48;;;5.78;;
41059;SDS011;26811;53.160;8.202;2023-06-05T00:21:46;13.75;;;6.05;;
41059;SDS011;26811;53.160;8.202;2023-06-05T00:26:47;11.32;;;5.30;;
41059;SDS011;26811;53.160;8.202;2023-06-05T00:31:47;13.63;;;5.35;;
41059;SDS011;26811;53.160;8.202;2023-06-05T00:36:48;17.30;;;6.03;;
41059;SDS011;26811;53.160;8.202;2023-06-05T00:41:50;14.95;;;5.47;;
41059;SDS011;26811;53.160;8.202;2023-06-05T00:46:51;11.45;;;5.82;;
41059;SDS011;26811;53.160;8.202;2023-06-05T00:51:52;20.13;;;5.97;;
41059;SDS011;26811;53.160;8.202;2023-06-05T00:56:53;13.70;;;5.75;;
41059;SDS011;26811;53.160;8.202;2023-06-05T01:01:54;14.02;;;5.68;;
41059;SDS011;26811;53.160;8.202;2023-06-05T01:06:55;13.40;;;5.50;;
41059;SDS011;26811;53.160;8.202;2023-06-05T01:12:00;12.85;;;5.75;;
41059;SDS011;26811;53.160;8.202;2023-06-05T01:17:07;13.68;;;6.07;;
41059;SDS011;26811;53.160;8.202;2023-06-05T01:22:08;10.05;;;6.18;;
41059;SDS011;26811;53.160;8.202;2023-06-05T01:27:12;11.10;;;5.82;;
41059;SDS011;26811;53.160;8.202;2023-06-05T01:37:40;16.70;;;7.18;;
41059;SDS011;26811;53.160;8.202;2023-06-05T01:42:46;15.63;;;6.97;;
41059;SDS011;26811;53.160;8.202;2023-06-05T01:47:47;16.60;;;7.00;;
41059;SDS011;26811;53.160;8.202;2023-06-05T01:52:49;13.73;;;6.70;;
41059;SDS011;26811;53.160;8.202;2023-06-05T01:57:52;18.20;;;7.60;;
41059;SDS011;26811;53.160;8.202;2023-06-05T02:02:53;20.02;;;6.85;;
41059;SDS011;26811;53.160;8.202;2023-06-05T02:07:53;14.00;;;6.75;;
41059;SDS011;26811;53.160;8.202;2023-06-05T02:12:55;11.43;;;7.25;;
41059;SDS011;26811;53.160;8.202;2023-06-05T02:17:55;21.40;;;7.65;;
41059;SDS011;26811;53.160;8.202;2023-06-05T02:22:56;17.42;;;8.00;;
41059;SDS011;26811;53.160;8.202;2023-06-05T02:27:58;18.58;;;8.23;;
41059;SDS011;26811;53.160;8.202;2023-06-05T02:32:59;20.02;;;7.95;;
41059;SDS011;26811;53.160;8.202;2023-06-05T02:38:00;15.13;;;7.90;;
41059;SDS011;26811;53.160;8.202;2023-06-05T02:43:01;21.40;;;8.15;;
41059;SDS011;26811;53.160;8.202;2023-06-05T02:48:03;20.60;;;8.32;;
41059;SDS011;26811;53.160;8.202;2023-06-05T02:53:03;19.25;;;8.10;;
41059;SDS011;26811;53.160;8.202;2023-06-05T02:58:04;15.38;;;7.57;;
41059;SDS011;26811;53.160;8.202;2023-06-05T03:03:04;17.70;;;7.90;;
41059;SDS011;26811;53.160;8.202;2023-06-05T03:08:06;17.67;;;7.80;;
41059;SDS011;26811;53.160;8.202;2023-06-05T03:13:08;16.38;;;7.43;;
41059;SDS011;26811;53.160;8.202;2023-06-05T03:18:08;18.60;;;7.97;;
41059;SDS011;26811;53.160;8.202;2023-06-05T03:23:09;15.20;;;7.63;;
41059;SDS011;26811;53.160;8.202;2023-06-05T03:28:10;15.82;;;7.55;;
41059;SDS011;26811;53.160;8.202;2023-06-05T03:33:10;17.15;;;7.93;;
41059;SDS011;26811;53.160;8.202;2023-06-05T03:38:11;14.43;;;7.10;;
41059;SDS011;26811;53.160;8.202;2023-06-05T03:43:12;16.23;;;7.75;;
41059;SDS011;26811;53.160;8.202;2023-06-05T03:48:12;15.15;;;7.65;;
41059;SDS011;26811;53.160;8.202;2023-06-05T03:53:13;23.67;;;8.65;;
41059;SDS011;26811;53.160;8.202;2023-06-05T03:58:14;19.83;;;8.48;;
41059;SDS011;26811;53.160;8.202;2023-06-05T04:03:15;18.85;;;8.98;;
41059;SDS011;26811;53.160;8.202;2023-06-05T04:08:15;21.60;;;8.55;;
41059;SDS011;26811;53.160;8.202;2023-06-05T04:13:16;25.70;;;8.63;;
41059;SDS011;26811;53.160;8.202;2023-06-05T04:18:17;19.67;;;8.65;;
41059;SDS011;26811;53.160;8.202;2023-06-05T04:23:17;15.05;;;7.97;;
41059;SDS011;26811;53.160;8.202;2023-06-05T04:28:18;20.73;;;8.23;;
41059;SDS011;26811;53.160;8.202;2023-06-05T04:33:18;17.58;;;8.93;;
41059;SDS011;26811;53.160;8.202;2023-06-05T04:38:19;22.45;;;8.18;;
41059;SDS011;26811;53.160;8.202;2023-06-05T04:43:21;23.17;;;8.75;;
41059;SDS011;26811;53.160;8.202;2023-06-05T04:48:22;23.20;;;8.48;;
41059;SDS011;26811;53.160;8.202;2023-06-05T04:53:23;19.30;;;9.25;;
41059;SDS011;26811;53.160;8.202;2023-06-05T04:58:24;21.60;;;9.15;;
41059;SDS011;26811;53.160;8.202;2023-06-05T05:03:24;17.05;;;8.48;;
41059;SDS011;26811;53.160;8.202;2023-06-05T05:08:29;17.13;;;8.80;;
41059;SDS011;26811;53.160;8.202;2023-06-05T05:13:31;21.83;;;8.32;;
41059;SDS011;26811;53.160;8.202;2023-06-05T05:18:31;21.08;;;8.77;;
41059;SDS011;26811;53.160;8.202;2023-06-05T05:23:32;23.13;;;8.30;;
41059;SDS011;26811;53.160;8.202;2023-06-05T05:28:35;16.05;;;8.88;;
41059;SDS011;26811;53.160;8.202;2023-06-05T05:33:36;16.63;;;8.02;;
41059;SDS011;26811;53.160;8.202;2023-06-05T05:38:36;14.32;;;7.57;;
41059;SDS011;26811;53.160;8.202;2023-06-05T05:43:37;13.38;;;7.15;;
41059;SDS011;26811;53.160;8.202;2023-06-05T05:48:37;16.83;;;6.28;;
41059;SDS011;26811;53.160;8.202;2023-06-05T05:53:38;16.73;;;6.68;;
41059;SDS011;26811;53.160;8.202;2023-06-05T05:58:39;12.25;;;6.22;;
41059;SDS011;26811;53.160;8.202;2023-06-05T06:03:39;13.27;;;6.25;;
41059;SDS011;26811;53.160;8.202;2023-06-05T06:08:40;14.90;;;6.07;;
41059;SDS011;26811;53.160;8.202;2023-06-05T06:13:40;13.27;;;6.82;;
41059;SDS011;26811;53.160;8.202;2023-06-05T06:18:41;10.75;;;6.03;;
41059;SDS011;26811;53.160;8.202;2023-06-05T06:23:42;15.60;;;6.68;;
41059;SDS011;26811;53.160;8.202;2023-06-05T06:28:44;11.30;;;6.75;;
41059;SDS011;26811;53.160;8.202;2023-06-05T06:33:45;17.70;;;7.38;;
41059;SDS011;26811;53.160;8.202;2023-06-05T06:38:45;18.02;;;7.22;;
41059;SDS011;26811;53.160;8.202;2023-06-05T06:43:46;20.70;;;7.10;;
41059;SDS011;26811;53.160;8.202;2023-06-05T06:48:46;11.95;;;6.25;;
41059;SDS011;26811;53.160;8.202;2023-06-05T06:53:47;12.18;;;7.07;;
41059;SDS011;26811;53.160;8.202;2023-06-05T06:58:48;15.30;;;7.18;;
41059;SDS011;26811;53.160;8.202;2023-06-05T07:03:48;16.48;;;6.70;;
41059;SDS011;26811;53.160;8.202;2023-06-05T07:08:49;13.75;;;6.50;;
41059;SDS011;26811;53.160;8.202;2023-06-05T07:13:50;14.35;;;7.32;;
41059;SDS011;26811;53.160;8.202;2023-06-05T07:18:50;13.10;;;7.40;;
41059;SDS011;26811;53.160;8.202;2023-06-05T07:23:55;12.07;;;7.82;;
41059;SDS011;26811;53.160;8.202;2023-06-05T07:28:56;13.77;;;7.95;;
41059;SDS011;26811;53.160;8.202;2023-06-05T07:33:56;13.02;;;7.57;;
41059;SDS011;26811;53.160;8.202;2023-06-05T07:38:56;11.82;;;7.80;;
41059;SDS011;26811;53.160;8.202;2023-06-05T07:43:57;16.23;;;8.65;;
41059;SDS011;26811;53.160;8.202;2023-06-05T07:48:57;13.57;;;7.70;;
41059;SDS011;26811;53.160;8.202;2023-06-05T07:53:58;14.27;;;8.45;;
41059;SDS011;26811;53.160;8.202;2023-06-05T07:58:59;12.70;;;7.47;;
41059;SDS011;26811;53.160;8.202;2023-06-05T08:04:00;16.17;;;7.35;;
41059;SDS011;26811;53.160;8.202;2023-06-05T08:09:00;12.60;;;7.72;;
41059;SDS011;26811;53.160;8.202;2023-06-05T08:14:02;14.00;;;7.30;;
41059;SDS011;26811;53.160;8.202;2023-06-05T08:19:03;13.68;;;6.63;;
41059;SDS011;26811;53.160;8.202;2023-06-05T08:24:07;14.43;;;6.25;;
41059;SDS011;26811;53.160;8.202;2023-06-05T08:29:07;10.85;;;6.15;;
41059;SDS011;26811;53.160;8.202;2023-06-05T08:34:08;12.77;;;6.28;;
41059;SDS011;26811;53.160;8.202;2023-06-05T08:39:08;13.98;;;6.13;;
41059;SDS011;26811;53.160;8.202;2023-06-05T08:44:12;11.20;;;6.45;;
41059;SDS011;26811;53.160;8.202;2023-06-05T08:49:13;13.00;;;6.68;;
41059;SDS011;26811;53.160;8.202;2023-06-05T08:54:17;11.27;;;6.25;;
41059;SDS011;26811;53.160;8.202;2023-06-05T08:59:19;13.60;;;6.18;;
41059;SDS011;26811;53.160;8.202;2023-06-05T09:04:24;11.43;;;5.75;;
41059;SDS011;26811;53.160;8.202;2023-06-05T09:09:25;12.15;;;6.03;;
41059;SDS011;26811;53.160;8.202;2023-06-05T09:14:26;14.00;;;6.05;;
41059;SDS011;26811;53.160;8.202;2023-06-05T09:19:36;10.07;;;6.40;;
41059;SDS011;26811;53.160;8.202;2023-06-05T09:24:38;9.18;;;5.45;;
41059;SDS011;26811;53.160;8.202;2023-06-05T09:29:41;12.27;;;6.05;;
41059;SDS011;26811;53.160;8.202;2023-06-05T09:39:49;9.10;;;6.22;;
41059;SDS011;26811;53.160;8.202;2023-06-05T09:44:57;10.48;;;5.70;;
41059;SDS011;26811;53.160;8.202;2023-06-05T09:49:59;11.38;;;5.40;;
41059;SDS011;26811;53.160;8.202;2023-06-05T09:55:02;9.13;;;5.85;;
41059;SDS011;26811;53.160;8.202;2023-06-05T10:00:04;10.82;;;5.70;;
41059;SDS011;26811;53.160;8.202;2023-06-05T10:05:06;11.30;;;5.00;;
41059;SDS011;26811;53.160;8.202;2023-06-05T10:10:11;10.38;;;4.93;;
41059;SDS011;26811;53.160;8.202;2023-06-05T10:15:12;10.38;;;5.35;;
41059;SDS011;26811;53.160;8.202;2023-06-05T10:20:13;12.90;;;4.93;;
41059;SDS011;26811;53.160;8.202;2023-06-05T10:25:14;11.75;;;4.72;;
41059;SDS011;26811;53.160;8.202;2023-06-05T10:40:53;10.30;;;4.53;;
41059;SDS011;26811;53.160;8.202;2023-06-05T10:45:55;12.75;;;4.63;;
41059;SDS011;26811;53.160;8.202;2023-06-05T10:51:16;8.35;;;5.28;;
41059;SDS011;26811;53.160;8.202;2023-06-05T10:56:54;16.15;;;6.05;;
41059;SDS011;26811;53.160;8.202;2023-06-05T11:07:21;8.63;;;5.00;;
41059;SDS011;26811;53.160;8.202;2023-06-05T11:12:24;11.18;;;5.57;;
41059;SDS011;26811;53.160;8.202;2023-06-05T11:32:54;7.85;;;5.53;;
41059;SDS011;26811;53.160;8.202;2023-06-05T11:43:09;11.20;;;5.20;;
41059;SDS011;26811;53.160;8.202;2023-06-05T11:48:12;11.00;;;5.93;;
41059;SDS011;26811;53.160;8.202;2023-06-05T11:53:14;9.65;;;5.38;;
41059;SDS011;26811;53.160;8.202;2023-06-05T12:03:25;9.23;;;6.00;;
41059;SDS011;26811;53.160;8.202;2023-06-05T12:08:29;13.50;;;5.95;;
41059;SDS011;26811;53.160;8.202;2023-06-05T12:13:48;10.82;;;5.82;;
41059;SDS011;26811;53.160;8.202;2023-06-05T12:18:53;10.82;;;5.35;;
41059;SDS011;26811;53.160;8.202;2023-06-05T12:24:11;12.18;;;6.60;;
41059;SDS011;26811;53.160;8.202;2023-06-05T12:29:12;9.13;;;5.50;;
41059;SDS011;26811;53.160;8.202;2023-06-05T12:34:13;10.50;;;6.80;;
41059;SDS011;26811;53.160;8.202;2023-06-05T12:39:15;12.18;;;6.20;;
41059;SDS011;26811;53.160;8.202;2023-06-05T12:44:17;12.55;;;6.60;;
41059;SDS011;26811;53.160;8.202;2023-06-05T12:49:17;13.65;;;6.68;;
41059;SDS011;26811;53.160;8.202;2023-06-05T12:54:18;13.18;;;6.72;;
41059;SDS011;26811;53.160;8.202;2023-06-05T12:59:19;17.83;;;7.00;;
41059;SDS011;26811;53.160;8.202;2023-06-05T13:04:20;10.65;;;6.75;;
41059;SDS011;26811;53.160;8.202;2023-06-05T13:09:24;11.18;;;6.72;;
41059;SDS011;26811;53.160;8.202;2023-06-05T13:14:26;13.13;;;6.20;;
41059;SDS011;26811;53.160;8.202;2023-06-05T13:19:26;11.18;;;7.10;;
41059;SDS011;26811;53.160;8.202;2023-06-05T13:24:27;11.95;;;6.65;;
41059;SDS011;26811;53.160;8.202;2023-06-05T13:29:27;12.23;;;6.75;;
41059;SDS011;26811;53.160;8.202;2023-06-05T13:34:30;9.32;;;5.72;;
41059;SDS011;26811;53.160;8.202;2023-06-05T13:39:31;9.65;;;5.80;;
41059;SDS011;26811;53.160;8.202;2023-06-05T13:44:31;9.65;;;5.25;;
41059;SDS011;26811;53.160;8.202;2023-06-05T13:49:32;13.60;;;6.00;;
41059;SDS011;26811;53.160;8.202;2023-06-05T13:54:35;13.25;;;5.40;;
41059;SDS011;26811;53.160;8.202;2023-06-05T13:59:36;10.88;;;5.32;;
41059;SDS011;26811;53.160;8.202;2023-06-05T14:04:36;13.40;;;5.45;;
41059;SDS011;26811;53.160;8.202;2023-06-05T14:09:37;10.48;;;5.35;;
41059;SDS011;26811;53.160;8.202;2023-06-05T14:14:38;7.78;;;5.28;;
41059;SDS011;26811;53.160;8.202;2023-06-05T14:19:39;11.70;;;5.72;;
41059;SDS011;26811;53.160;8.202;2023-06-05T14:24:39;11.20;;;5.45;;
41059;SDS011;26811;53.160;8.202;2023-06-05T14:29:40;12.13;;;6.22;;
41059;SDS011;26811;53.160;8.202;2023-06-05T14:34:41;14.00;;;5.78;;
41059;SDS011;26811;53.160;8.202;2023-06-05T14:39:42;12.45;;;5.35;;
41059;SDS011;26811;53.160;8.202;2023-06-05T14:44:45;11.10;;;5.53;;
41059;SDS011;26811;53.160;8.202;2023-06-05T14:49:46;11.05;;;5.05;;
41059;SDS011;26811;53.160;8.202;2023-06-05T14:54:46;11.25;;;5.00;;
41059;SDS011;26811;53.160;8.202;2023-06-05T14:59:47;15.48;;;5.38;;
41059;SDS011;26811;53.160;8.202;2023-06-05T15:04:51;11.48;;;5.43;;
41059;SDS011;26811;53.160;8.202;2023-06-05T15:09:52;8.13;;;4.20;;
41059;SDS011;26811;53.160;8.202;2023-06-05T15:14:53;10.70;;;4.63;;
41059;SDS011;26811;53.160;8.202;2023-06-05T15:19:53;9.82;;;4.25;;
41059;SDS011;26811;53.160;8.202;2023-06-05T15:24:54;9.75;;;4.35;;
41059;SDS011;26811;53.160;8.202;2023-06-05T15:29:57;10.93;;;4.60;;
41059;SDS011;26811;53.160;8.202;2023-06-05T15:34:58;8.50;;;4.13;;
41059;SDS011;26811;53.160;8.202;2023-06-05T15:39:58;10.30;;;4.47;;
41059;SDS011;26811;53.160;8.202;2023-06-05T15:45:08;8.82;;;4.18;;
41059;SDS011;26811;53.160;8.202;2023-06-05T15:50:13;13.68;;;4.35;;
41059;SDS011;26811;53.160;8.202;2023-06-05T15:55:13;12.18;;;4.15;;
41059;SDS011;26811;53.160;8.202;2023-06-05T16:00:17;8.75;;;4.13;;
41059;SDS011;26811;53.160;8.202;2023-06-05T16:05:18;9.27;;;4.43;;
41059;SDS011;26811;53.160;8.202;2023-06-05T16:10:21;9.60;;;4.43;;
41059;SDS011;26811;53.160;8.202;2023-06-05T16:15:21;13.00;;;4.90;;
41059;SDS011;26811;53.160;8.202;2023-06-05T16:20:22;9.70;;;4.28;;
41059;SDS011;26811;53.160;8.202;2023-06-05T16:25:23;9.73;;;4.43;;
41059;SDS011;26811;53.160;8.202;2023-06-05T16:30:24;8.97;;;4.43;;
41059;SDS011;26811;53.160;8.202;2023-06-05T16:35:25;9.95;;;4.82;;
41059;SDS011;26811;53.160;8.202;2023-06-05T16:40:26;10.40;;;4.40;;
41059;SDS011;26811;53.160;8.202;2023-06-05T16:45:26;9.45;;;4.40;;
41059;SDS011;26811;53.160;8.202;2023-06-05T16:50:27;11.75;;;4.80;;
41059;SDS011;26811;53.160;8.202;2023-06-05T16:55:27;11.63;;;4.80;;
41059;SDS011;26811;53.160;8.202;2023-06-05T17:00:28;7.68;;;4.07;;
41059;SDS011;26811;53.160;8.202;2023-06-05T17:05:28;10.07;;;4.10;;
41059;SDS011;26811;53.160;8.202;2023-06-05T17:10:29;9.98;;;4.57;;
41059;SDS011;26811;53.160;8.202;2023-06-05T17:15:30;9.75;;;4.47;;
41059;SDS011;26811;53.160;8.202;2023-06-05T17:20:30;11.27;;;4.50;;
41059;SDS011;26811;53.160;8.202;2023-06-05T17:25:31;8.50;;;4.45;;
41059;SDS011;26811;53.160;8.202;2023-06-05T17:30:31;9.52;;;4.60;;
41059;SDS011;26811;53.160;8.202;2023-06-05T17:35:32;10.38;;;4.60;;
41059;SDS011;26811;53.160;8.202;2023-06-05T17:40:32;9.48;;;4.90;;
41059;SDS011;26811;53.160;8.202;2023-06-05T17:45:33;8.50;;;4.60;;
41059;SDS011;26811;53.160;8.202;2023-06-05T17:50:34;11.57;;;4.80;;
41059;SDS011;26811;53.160;8.202;2023-06-05T17:55:35;12.30;;;4.75;;
41059;SDS011;26811;53.160;8.202;2023-06-05T18:00:35;10.43;;;5.10;;
41059;SDS011;26811;53.160;8.202;2023-06-05T18:05:37;11.82;;;4.53;;
41059;SDS011;26811;53.160;8.202;2023-06-05T18:10:38;11.98;;;4.30;;
41059;SDS011;26811;53.160;8.202;2023-06-05T18:15:39;10.67;;;5.10;;
41059;SDS011;26811;53.160;8.202;2023-06-05T18:20:40;10.00;;;4.60;;
41059;SDS011;26811;53.160;8.202;2023-06-05T18:25:41;14.35;;;4.60;;
41059;SDS011;26811;53.160;8.202;2023-06-05T18:30:44;10.27;;;5.10;;
41059;SDS011;26811;53.160;8.202;2023-06-05T18:35:44;8.82;;;5.22;;
41059;SDS011;26811;53.160;8.202;2023-06-05T18:40:45;9.35;;;4.43;;
41059;SDS011;26811;53.160;8.202;2023-06-05T18:45:46;14.35;;;5.32;;
41059;SDS011;26811;53.160;8.202;2023-06-05T18:50:46;9.57;;;4.85;;
41059;SDS011;26811;53.160;8.202;2023-06-05T18:55:47;10.95;;;4.60;;
41059;SDS011;26811;53.160;8.202;2023-06-05T19:00:47;9.45;;;4.70;;
41059;SDS011;26811;53.160;8.202;2023-06-05T19:05:48;12.90;;;5.18;;
41059;SDS011;26811;53.160;8.202;2023-06-05T19:10:49;17.35;;;4.97;;
41059;SDS011;26811;53.160;8.202;2023-06-05T19:15:49;7.88;;;4.72;;
41059;SDS011;26811;53.160;8.202;2023-06-05T19:20:50;10.57;;;4.88;;
41059;SDS011;26811;53.160;8.202;2023-06-05T19:25:50;16.15;;;4.88;;
41059;SDS011;26811;53.160;8.202;2023-06-05T19:30:51;13.18;;;5.13;;
41059;SDS011;26811;53.160;8.202;2023-06-05T19:35:51;11.27;;;5.00;;
41059;SDS011;26811;53.160;8.202;2023-06-05T19:40:52;17.80;;;5.30;;
41059;SDS011;26811;53.160;8.202;2023-06-05T19:45:53;15.38;;;4.90;;
41059;SDS011;26811;53.160;8.202;2023-06-05T19:50:57;9.27;;;4.93;;
41059;SDS011;26811;53.160;8.202;2023-06-05T19:55:57;13.30;;;5.10;;
41059;SDS011;26811;53.160;8.202;2023-06-05T20:00:58;19.98;;;5.50;;
41059;SDS011;26811;53.160;8.202;2023-06-05T20:06:02;14.07;;;5.40;;
41059;SDS011;26811;53.160;8.202;2023-06-05T20:11:03;13.25;;;5.30;;
41059;SDS011;26811;53.160;8.202;2023-06-05T20:16:03;11.20;;;5.13;;
41059;SDS011;26811;53.160;8.202;2023-06-05T20:21:07;13.32;;;5.30;;
41059;SDS011;26811;53.160;8.202;2023-06-05T20:26:11;12.45;;;5.70;;
41059;SDS011;26811;53.160;8.202;2023-06-05T20:31:11;12.13;;;5.68;;
41059;SDS011;26811;53.160;8.202;2023-06-05T20:36:12;13.00;;;5.30;;
41059;SDS011;26811;53.160;8.202;2023-06-05T20:41:15;11.57;;;6.15;;
41059;SDS011;26811;53.160;8.202;2023-06-05T20:46:18;17.35;;;6.00;;
41059;SDS011;26811;53.160;8.202;2023-06-05T20:51:20;16.00;;;5.95;;
41059;SDS011;26811;53.160;8.202;2023-06-05T20:56:24;14.25;;;5.88;;
41059;SDS011;26811;53.160;8.202;2023-06-05T21:01:26;14.82;;;5.53;;
41059;SDS011;26811;53.160;8.202;2023-06-05T21:06:29;16.73;;;6.07;;
41059;SDS011;26811;53.160;8.202;2023-06-05T21:11:29;11.35;;;5.90;;
41059;SDS011;26811;53.160;8.202;2023-06-05T21:16:30;16.08;;;6.30;;
41059;SDS011;26811;53.160;8.202;2023-06-05T21:21:30;15.02;;;5.90;;
41059;SDS011;26811;53.160;8.202;2023-06-05T21:26:31;14.45;;;5.85;;
41059;SDS011;26811;53.160;8.202;2023-06-05T21:31:31;13.45;;;5.68;;
41059;SDS011;26811;53.160;8.202;2023-06-05T21:36:32;9.90;;;5.35;;
41059;SDS011;26811;53.160;8.202;2023-06-05T21:41:32;13.35;;;5.78;;
41059;SDS011;26811;53.160;8.202;2023-06-05T21:46:33;20.98;;;5.93;;
41059;SDS011;26811;53.160;8.202;2023-06-05T21:51:34;10.27;;;5.35;;
41059;SDS011;26811;53.160;8.202;2023-06-05T21:56:34;13.57;;;5.53;;
41059;SDS011;26811;53.160;8.202;2023-06-05T22:01:35;13.23;;;5.75;;
41059;SDS011;26811;53.160;8.202;2023-06-05T22:06:35;15.88;;;5.53;;
41059;SDS011;26811;53.160;8.202;2023-06-05T22:11:36;13.13;;;5.38;;
41059;SDS011;26811;53.160;8.202;2023-06-05T22:16:38;13.63;;;6.05;;
41059;SDS011;26811;53.160;8.202;2023-06-05T22:21:41;17.30;;;5.78;;
41059;SDS011;26811;53.160;8.202;2023-06-05T22:26:43;18.08;;;5.78;;
41059;SDS011;26811;53.160;8.202;2023-06-05T22:31:45;11.23;;;6.07;;
41059;SDS011;26811;53.160;8.202;2023-06-05T22:36:46;13.88;;;6.47;;
41059;SDS011;26811;53.160;8.202;2023-06-05T22:41:47;13.60;;;6.07;;
41059;SDS011;26811;53.160;8.202;2023-06-05T22:46:47;15.73;;;6.40;;
41059;SDS011;26811;53.160;8.202;2023-06-05T22:51:49;17.60;;;6.22;;
41059;SDS011;26811;53.160;8.202;2023-06-05T22:56:53;14.02;;;6.22;;
41059;SDS011;26811;53.160;8.202;2023-06-05T23:01:53;17.40;;;5.90;;
41059;SDS011;26811;53.160;8.202;2023-06-05T23:06:54;16.15;;;5.82;;
41059;SDS011;26811;53.160;8.202;2023-06-05T23:11:59;13.95;;;5.78;;
41059;SDS011;26811;53.160;8.202;2023-06-05T23:17:00;9.60;;;5.75;;
41059;SDS011;26811;53.160;8.202;2023-06-05T23:22:00;12.85;;;5.85;;
41059;SDS011;26811;53.160;8.202;2023-06-05T23:27:01;13.00;;;6.22;;
41059;SDS011;26811;53.160;8.202;2023-06-05T23:32:01;14.25;;;5.40;;
41059;SDS011;26811;53.160;8.202;2023-06-05T23:37:02;14.88;;;5.55;;
41059;SDS011;26811;53.160;8.202;2023-06-05T23:42:03;12.98;;;5.60;;
41059;SDS011;26811;53.160;8.202;2023-06-05T23:47:04;15.05;;;5.82;;
41059;SDS011;26811;53.160;8.202;2023-06-05T23:52:05;15.65;;;5.82;;
41059;SDS011;26811;53.160;8.202;2023-06-05T23:57:06;14.80;;;5.93;;
